Point Reyes Station, California
Current Conditions -  °F | °C
As of 2:55 PM on Tuesday 21 Oct 2014 (Local Time) from KDVO Reporting Station
NA  
Wind Chill: 23°   Ceiling: NA
Heat Index: 23°   Visibility: NA
Dew Point:   Wind: 10mph
Humidity: 38%   Direction: 330°NNW
Pressure: 30.03"   Gusts: NA
Location:  38.07°N, 122.81°W
Report Text: KDVO 212155Z AUTO 33009KT 23/08 A3003 RMK AO2
Loading
Personal Weather Stations






























Interactive Weather Map
Tropical Storm Tracking
New forecast layout! Learn more

10-Day Weather Forecast

Advertisements
Track Severe Weather on mobile